createdAt,value
2022-09-09T00:00:14.618Z,2.1
2022-09-09T00:01:30.899Z,2.1
2022-09-09T00:04:03.499Z,2.1
2022-09-09T00:05:19.780Z,2
2022-09-09T00:06:36.074Z,2.2
2022-09-09T00:07:52.377Z,2.1
2022-09-09T00:09:08.675Z,2
2022-09-09T00:10:24.960Z,2
2022-09-09T00:11:41.255Z,2
2022-09-09T00:12:57.562Z,2
2022-09-09T00:14:13.847Z,2
2022-09-09T00:15:29.152Z,1.9
2022-09-09T00:16:45.447Z,2.1
2022-09-09T00:18:01.743Z,2.1
2022-09-09T00:19:18.045Z,2
2022-09-09T00:20:34.342Z,2.2
2022-09-09T00:21:50.626Z,2
2022-09-09T00:23:06.923Z,2.1
2022-09-09T00:24:23.219Z,2
2022-09-09T00:25:39.512Z,1.8
2022-09-09T00:26:55.000Z,1.8
2022-09-09T00:28:12.107Z,1.9
2022-09-09T00:29:28.382Z,2
2022-09-09T00:30:44.690Z,1.9
2022-09-09T00:32:00.001Z,2
2022-09-09T00:33:16.300Z,2
2022-09-09T00:34:32.579Z,1.8
2022-09-09T00:35:48.872Z,2.1
2022-09-09T00:37:05.167Z,2.1
2022-09-09T00:38:21.460Z,1.9
2022-09-09T00:39:37.752Z,2
2022-09-09T00:40:54.064Z,2
2022-09-09T00:42:10.354Z,2
2022-09-09T00:43:26.650Z,2
2022-09-09T00:44:42.938Z,2.2
2022-09-09T00:45:59.240Z,2
2022-09-09T00:47:15.534Z,2
2022-09-09T00:48:30.780Z,2.1
2022-09-09T00:49:47.127Z,2
2022-09-09T00:51:03.415Z,2
2022-09-09T00:52:19.715Z,1.9
2022-09-09T00:53:36.010Z,2.1
2022-09-09T00:54:52.303Z,2
2022-09-09T00:56:08.596Z,2
2022-09-09T00:57:24.888Z,2.2
2022-09-09T00:58:41.180Z,2.1
2022-09-09T00:59:57.484Z,2.1
2022-09-09T01:02:30.077Z,1.9
2022-09-09T01:03:46.354Z,1.7
2022-09-09T01:05:01.668Z,2
2022-09-09T01:06:17.959Z,1.9
2022-09-09T01:07:34.268Z,1.8
2022-09-09T01:08:50.564Z,2
2022-09-09T01:10:06.839Z,2.1
2022-09-09T01:11:23.147Z,1.9
2022-09-09T01:12:39.434Z,2.1
2022-09-09T01:13:55.740Z,1.7
2022-09-09T01:15:12.027Z,1.9
2022-09-09T01:16:28.309Z,1.9
2022-09-09T01:17:44.622Z,1.9
2022-09-09T01:19:00.915Z,2
2022-09-09T01:20:17.210Z,2
2022-09-09T01:21:32.518Z,1.9
2022-09-09T01:22:48.814Z,1.8
2022-09-09T01:24:05.100Z,1.8
2022-09-09T01:25:21.397Z,2.1
2022-09-09T01:26:37.636Z,2.1
2022-09-09T01:27:53.971Z,1.9
2022-09-09T01:29:09.286Z,2
2022-09-09T01:31:41.887Z,1.9
2022-09-09T01:32:58.179Z,2.1
2022-09-09T01:34:14.415Z,1.9
2022-09-09T01:35:30.762Z,1.9
2022-09-09T01:36:47.054Z,1.8
2022-09-09T01:38:03.357Z,2
2022-09-09T01:39:19.589Z,1.9
2022-09-09T01:40:35.936Z,2
2022-09-09T01:41:52.238Z,1.9
2022-09-09T01:43:08.477Z,2
2022-09-09T01:44:24.818Z,2
2022-09-09T01:45:40.132Z,2
2022-09-09T01:46:56.375Z,2
2022-09-09T01:48:12.725Z,1.9
2022-09-09T01:49:28.959Z,1.9
2022-09-09T01:50:45.316Z,1.9
2022-09-09T01:52:01.595Z,1.8
2022-09-09T01:53:17.839Z,1.8
2022-09-09T01:54:34.184Z,2
2022-09-09T01:55:50.483Z,1.8
2022-09-09T01:57:06.772Z,2
2022-09-09T01:58:23.067Z,2.1
2022-09-09T01:59:39.359Z,1.8
2022-09-09T02:00:55.667Z,1.8
2022-09-09T02:02:10.979Z,1.9
2022-09-09T02:03:27.272Z,2
2022-09-09T02:04:43.562Z,1.9
2022-09-09T02:05:59.865Z,2.1
2022-09-09T02:07:16.152Z,2
2022-09-09T02:08:32.451Z,1.9
2022-09-09T02:09:48.731Z,1.9
2022-09-09T02:11:05.025Z,1.9
2022-09-09T02:12:21.323Z,1.8
2022-09-09T02:13:37.617Z,1.8
2022-09-09T02:14:53.911Z,2
2022-09-09T02:16:10.200Z,1.8
2022-09-09T02:17:26.506Z,1.9
2022-09-09T02:18:41.822Z,1.7
2022-09-09T02:19:58.110Z,2
2022-09-09T02:21:14.397Z,2.1
2022-09-09T02:22:30.701Z,2
2022-09-09T02:23:46.981Z,2
2022-09-09T02:25:03.287Z,1.8
2022-09-09T02:26:19.583Z,1.9
2022-09-09T02:27:35.816Z,1.8
2022-09-09T02:28:52.156Z,1.8
2022-09-09T02:30:08.408Z,2
2022-09-09T02:31:24.742Z,1.9
2022-09-09T02:32:41.045Z,1.9
2022-09-09T02:33:57.342Z,1.8
2022-09-09T02:35:12.649Z,1.7
2022-09-09T02:36:28.944Z,1.8
2022-09-09T02:37:45.244Z,2
2022-09-09T02:39:01.537Z,1.9
2022-09-09T02:40:17.830Z,2.2
2022-09-09T02:41:34.114Z,1.8
2022-09-09T02:42:50.407Z,2
2022-09-09T02:44:06.704Z,1.6
2022-09-09T02:45:23.009Z,1.8
2022-09-09T02:46:39.303Z,2
2022-09-09T02:47:55.588Z,1.7
2022-09-09T02:49:11.879Z,1.8
2022-09-09T02:50:28.000Z,2.1
2022-09-09T02:51:43.499Z,2
2022-09-09T02:52:59.774Z,2.1
2022-09-09T02:54:16.076Z,1.9
2022-09-09T02:55:32.376Z,1.8
2022-09-09T02:56:48.676Z,1.9
2022-09-09T02:58:04.953Z,1.9
2022-09-09T02:59:21.254Z,2
2022-09-09T03:00:37.549Z,1.9
2022-09-09T03:01:53.836Z,1.9
2022-09-09T03:03:10.087Z,1.8
2022-09-09T03:04:26.423Z,1.9
2022-09-09T03:05:42.722Z,1.9
2022-09-09T03:06:59.011Z,1.9
2022-09-09T03:08:14.329Z,1.8
2022-09-09T03:09:30.562Z,1.6
2022-09-09T03:10:46.858Z,1.9
2022-09-09T03:12:03.220Z,1.7
2022-09-09T03:13:19.515Z,1.8
2022-09-09T03:14:35.791Z,1.7
2022-09-09T03:15:52.085Z,1.8
2022-09-09T03:17:08.398Z,1.7
2022-09-09T03:18:24.687Z,1.8
2022-09-09T03:19:40.975Z,1.7
2022-09-09T03:20:57.272Z,1.7
2022-09-09T03:22:13.553Z,1.9
2022-09-09T03:23:29.858Z,1.8
2022-09-09T03:24:45.174Z,1.8
2022-09-09T03:26:01.458Z,1.7
2022-09-09T03:27:17.749Z,1.9
2022-09-09T03:28:34.056Z,1.8
2022-09-09T03:29:50.341Z,2
2022-09-09T03:31:06.628Z,1.9
2022-09-09T03:33:39.227Z,1.9
2022-09-09T03:34:55.522Z,1.8
2022-09-09T03:36:11.804Z,1.7
2022-09-09T03:37:28.118Z,1.9
2022-09-09T03:38:44.392Z,1.7
2022-09-09T03:40:00.700Z,1.7
2022-09-09T03:41:16.008Z,1.9
2022-09-09T03:42:32.308Z,1.9
2022-09-09T03:43:48.536Z,1.8
2022-09-09T03:45:04.878Z,1.7
2022-09-09T03:46:21.189Z,1.8
2022-09-09T03:47:37.476Z,1.8
2022-09-09T03:48:53.764Z,1.9
2022-09-09T03:50:10.070Z,2.1
2022-09-09T03:51:26.348Z,1.9
2022-09-09T03:52:42.649Z,1.7
2022-09-09T03:53:58.946Z,1.8
2022-09-09T03:55:15.245Z,1.8
2022-09-09T03:56:31.545Z,1.8
2022-09-09T03:57:46.836Z,1.8
2022-09-09T03:59:03.137Z,2
2022-09-09T04:00:19.438Z,1.7
2022-09-09T04:01:35.736Z,1.7
2022-09-09T04:02:51.958Z,1.9
2022-09-09T04:04:08.266Z,1.8
2022-09-09T04:05:24.511Z,1.8
2022-09-09T04:06:40.757Z,1.7
2022-09-09T04:07:57.053Z,1.6
2022-09-09T04:09:13.306Z,1.9
2022-09-09T04:10:29.533Z,1.6
2022-09-09T04:11:45.787Z,1.8
2022-09-09T04:13:02.023Z,1.9
2022-09-09T04:14:17.282Z,1.9
2022-09-09T04:15:33.516Z,1.7
2022-09-09T04:16:49.750Z,1.9
2022-09-09T04:18:05.990Z,1.9
2022-09-09T04:19:22.239Z,1.9
2022-09-09T04:20:38.473Z,2
2022-09-09T04:21:54.705Z,1.7
2022-09-09T04:23:10.951Z,1.8
2022-09-09T04:24:27.191Z,2
2022-09-09T04:25:43.428Z,2
2022-09-09T04:26:59.678Z,1.8
2022-09-09T04:28:15.915Z,1.9
2022-09-09T04:29:32.154Z,1.9
2022-09-09T04:30:47.400Z,2
2022-09-09T04:32:03.645Z,1.7
2022-09-09T04:33:19.881Z,1.8
2022-09-09T04:34:36.124Z,2.1
2022-09-09T04:35:52.378Z,2
2022-09-09T04:37:08.605Z,2
2022-09-09T04:38:24.847Z,1.9
2022-09-09T04:39:41.099Z,2
2022-09-09T04:40:57.322Z,2
2022-09-09T04:42:13.577Z,2.2
2022-09-09T04:43:29.821Z,2.1
2022-09-09T04:44:46.060Z,1.9
2022-09-09T04:46:02.293Z,2
2022-09-09T04:47:17.552Z,2.2
2022-09-09T04:48:33.745Z,1.9
2022-09-09T04:49:50.032Z,2.2
2022-09-09T04:51:06.267Z,2.2
2022-09-09T04:52:22.511Z,2.1
2022-09-09T04:53:38.748Z,2.2
2022-09-09T04:54:54.993Z,2
2022-09-09T04:56:11.222Z,2
2022-09-09T04:57:27.468Z,1.9
2022-09-09T04:58:43.717Z,2
2022-09-09T04:59:59.955Z,2
2022-09-09T05:01:16.198Z,1.9
2022-09-09T05:02:32.422Z,2
2022-09-09T05:03:47.680Z,2
2022-09-09T05:05:03.928Z,2.1
2022-09-09T05:06:20.156Z,2.1
2022-09-09T05:07:36.408Z,1.8
2022-09-09T05:08:52.650Z,2
2022-09-09T05:10:08.879Z,2
2022-09-09T05:11:25.121Z,2.2
2022-09-09T05:12:41.368Z,2.1
2022-09-09T05:13:57.604Z,2.1
2022-09-09T05:15:13.841Z,2
2022-09-09T05:16:30.086Z,2.3
2022-09-09T05:17:46.332Z,2.2
2022-09-09T05:19:02.568Z,1.9
2022-09-09T05:20:17.821Z,2
2022-09-09T05:21:34.065Z,1.9
2022-09-09T05:22:50.249Z,1.8
2022-09-09T05:24:06.550Z,1.9
2022-09-09T05:25:22.725Z,2
2022-09-09T05:26:39.019Z,1.9
2022-09-09T05:27:55.251Z,2.1
2022-09-09T05:29:11.511Z,1.9
2022-09-09T05:30:27.739Z,2
2022-09-09T05:31:43.978Z,1.8
2022-09-09T05:33:00.217Z,1.9
2022-09-09T05:34:16.468Z,1.9
2022-09-09T05:35:32.709Z,1.9
2022-09-09T05:36:47.961Z,1.7
2022-09-09T05:38:04.189Z,1.8
2022-09-09T05:39:20.428Z,1.9
2022-09-09T05:40:36.676Z,1.8
2022-09-09T05:41:52.929Z,1.9
2022-09-09T05:43:09.156Z,1.8
2022-09-09T05:44:24.419Z,1.8
2022-09-09T05:45:40.655Z,1.6
2022-09-09T05:46:56.906Z,1.8
2022-09-09T05:48:13.131Z,2
2022-09-09T05:49:29.379Z,1.7
2022-09-09T05:50:45.628Z,1.8
2022-09-09T05:52:01.854Z,1.8
2022-09-09T05:53:18.104Z,1.9
2022-09-09T05:54:34.344Z,1.8
2022-09-09T05:55:50.590Z,1.9
2022-09-09T05:57:06.823Z,1.7
2022-09-09T05:58:23.057Z,1.7
2022-09-09T05:59:39.310Z,1.7
2022-09-09T06:00:54.562Z,1.7
2022-09-09T06:02:10.795Z,1.8
2022-09-09T06:03:27.045Z,1.8
2022-09-09T06:04:43.217Z,1.7
2022-09-09T06:05:59.524Z,1.8
2022-09-09T06:07:15.765Z,1.7
2022-09-09T06:08:31.993Z,1.7
2022-09-09T06:09:48.229Z,1.7
2022-09-09T06:11:04.422Z,1.9
2022-09-09T06:12:20.722Z,1.9
2022-09-09T06:13:36.953Z,1.8
2022-09-09T06:14:53.197Z,1.7
2022-09-09T06:16:09.442Z,1.7
2022-09-09T06:17:24.693Z,1.5
2022-09-09T06:18:40.879Z,1.7
2022-09-09T06:19:57.122Z,1.8
2022-09-09T06:21:13.411Z,1.9
2022-09-09T06:22:29.654Z,1.7
2022-09-09T06:23:45.900Z,1.8
2022-09-09T06:25:02.142Z,1.8
2022-09-09T06:26:18.367Z,1.7
2022-09-09T06:27:34.606Z,1.7
2022-09-09T06:28:50.862Z,1.8
2022-09-09T06:30:07.092Z,1.8
2022-09-09T06:31:23.287Z,1.6
2022-09-09T06:32:39.534Z,1.7
2022-09-09T06:33:54.841Z,1.7
2022-09-09T06:35:11.063Z,1.8
2022-09-09T06:36:27.317Z,2
2022-09-09T06:38:59.785Z,1.8
2022-09-09T06:40:15.974Z,1.8
2022-09-09T06:41:32.275Z,1.7
2022-09-09T06:44:04.750Z,2
2022-09-09T06:45:20.983Z,1.6
2022-09-09T06:46:37.227Z,1.6
2022-09-09T06:47:53.474Z,1.6
2022-09-09T06:49:09.714Z,1.8
2022-09-09T06:50:24.970Z,1.7
2022-09-09T06:51:41.150Z,1.6
2022-09-09T06:52:57.441Z,1.7
2022-09-09T06:54:13.687Z,1.7
2022-09-09T06:55:29.867Z,1.7
2022-09-09T06:56:46.161Z,1.7
2022-09-09T06:58:02.403Z,1.7
2022-09-09T06:59:18.647Z,1.6
2022-09-09T07:00:34.892Z,1.8
2022-09-09T07:01:51.121Z,1.6
2022-09-09T07:03:07.368Z,1.7
2022-09-09T07:04:23.607Z,1.8
2022-09-09T07:05:39.851Z,1.7
2022-09-09T07:06:55.104Z,1.5
2022-09-09T07:08:11.347Z,1.7
2022-09-09T07:09:27.575Z,1.6
2022-09-09T07:10:43.815Z,1.6
2022-09-09T07:12:00.059Z,1.7
2022-09-09T07:13:16.298Z,1.7
2022-09-09T07:14:32.551Z,1.8
2022-09-09T07:15:48.788Z,1.8
2022-09-09T07:17:05.023Z,1.6
2022-09-09T07:18:21.256Z,1.7
2022-09-09T07:19:37.506Z,1.6
2022-09-09T07:20:53.733Z,1.7
2022-09-09T07:22:09.986Z,1.7
2022-09-09T07:23:25.229Z,1.7
2022-09-09T07:24:41.469Z,1.6
2022-09-09T07:25:57.725Z,1.8
2022-09-09T07:27:13.961Z,1.8
2022-09-09T07:28:30.194Z,1.7
2022-09-09T07:29:46.430Z,1.6
2022-09-09T07:31:02.689Z,1.7
2022-09-09T07:32:18.921Z,1.7
2022-09-09T07:33:35.151Z,1.6
2022-09-09T07:34:51.348Z,1.6
2022-09-09T07:36:07.647Z,1.8
2022-09-09T07:37:23.882Z,1.9
2022-09-09T07:38:40.124Z,1.8
2022-09-09T07:39:55.376Z,1.6
2022-09-09T07:41:11.619Z,1.8
2022-09-09T07:42:27.847Z,1.6
2022-09-09T07:43:44.099Z,1.7
2022-09-09T07:45:00.338Z,1.7
2022-09-09T07:46:16.584Z,1.7
2022-09-09T07:47:32.812Z,1.6
2022-09-09T07:48:49.048Z,1.5
2022-09-09T07:50:05.289Z,1.6
2022-09-09T07:51:21.536Z,1.5
2022-09-09T07:52:37.764Z,1.6
2022-09-09T07:53:54.009Z,1.4
2022-09-09T07:55:10.264Z,1.4
2022-09-09T07:56:25.515Z,1.4
2022-09-09T07:57:41.748Z,1.5
2022-09-09T07:58:57.987Z,1.5
2022-09-09T08:00:14.239Z,1.4
2022-09-09T08:01:30.476Z,1.6
2022-09-09T08:02:46.718Z,1.5
2022-09-09T08:04:02.948Z,1.5
2022-09-09T08:05:19.182Z,1.6
2022-09-09T08:06:35.427Z,1.5
2022-09-09T08:07:51.666Z,1.3
2022-09-09T08:10:24.161Z,1.4
2022-09-09T08:11:40.397Z,1.2
2022-09-09T08:12:55.657Z,1.4
2022-09-09T08:14:11.882Z,1.8
2022-09-09T08:15:28.137Z,1.4
2022-09-09T08:16:44.367Z,1.6
2022-09-09T08:18:00.611Z,1.4
2022-09-09T08:19:16.846Z,1.4
2022-09-09T08:20:33.089Z,1.4
2022-09-09T08:21:49.323Z,1.3
2022-09-09T08:23:05.000Z,1.4
2022-09-09T08:24:21.818Z,1.4
2022-09-09T08:25:38.043Z,1.6
2022-09-09T08:26:54.281Z,1.5
2022-09-09T08:28:10.527Z,1.5
2022-09-09T08:29:25.794Z,1.6
2022-09-09T08:30:42.023Z,1.7
2022-09-09T08:33:14.505Z,1.4
2022-09-09T08:34:30.743Z,1.3
2022-09-09T08:35:46.987Z,1.5
2022-09-09T08:37:03.235Z,1.4
2022-09-09T08:38:19.474Z,1.4
2022-09-09T08:39:35.712Z,1.4
2022-09-09T08:40:51.946Z,1.9
2022-09-09T08:42:08.189Z,1.5
2022-09-09T08:43:24.420Z,1.5
2022-09-09T08:44:40.669Z,1.6
2022-09-09T08:45:55.926Z,1.6
2022-09-09T08:47:12.161Z,1.6
2022-09-09T08:48:28.395Z,1.9
2022-09-09T08:49:44.634Z,1.6
2022-09-09T08:51:00.880Z,1.8
2022-09-09T08:52:17.124Z,1.5
2022-09-09T08:53:33.370Z,1.6
2022-09-09T08:54:49.591Z,1.5
2022-09-09T08:56:05.851Z,1.2
2022-09-09T08:57:22.072Z,1.3
2022-09-09T08:58:38.321Z,1.4
2022-09-09T08:59:54.555Z,1.5
2022-09-09T09:01:10.801Z,1.4
2022-09-09T09:02:26.050Z,1.5
2022-09-09T09:03:42.304Z,1.4
2022-09-09T09:04:58.529Z,1.6
2022-09-09T09:06:14.786Z,1.5
2022-09-09T09:07:31.015Z,1.8
2022-09-09T09:08:47.265Z,1.4
2022-09-09T09:10:03.499Z,1.6
2022-09-09T09:11:19.735Z,1.6
2022-09-09T09:12:35.977Z,1.4
2022-09-09T09:13:52.224Z,1.8
2022-09-09T09:15:08.452Z,1.5
2022-09-09T09:16:24.691Z,1.6
2022-09-09T09:17:40.930Z,1.5
2022-09-09T09:18:56.187Z,1.7
2022-09-09T09:20:12.428Z,1.5
2022-09-09T09:21:28.665Z,1.7
2022-09-09T09:22:44.916Z,1.5
2022-09-09T09:24:01.144Z,1.6
2022-09-09T09:25:17.403Z,1.3
2022-09-09T09:26:33.636Z,1.5
2022-09-09T09:27:49.874Z,1.6
2022-09-09T09:29:06.117Z,1.5
2022-09-09T09:30:22.348Z,1.6
2022-09-09T09:31:38.591Z,1.4
2022-09-09T09:32:54.837Z,1.2
2022-09-09T09:34:11.064Z,1.5
2022-09-09T09:35:26.323Z,1.5
2022-09-09T09:36:42.561Z,1.3
2022-09-09T09:37:58.811Z,1.4
2022-09-09T09:39:15.043Z,1.3
2022-09-09T09:40:31.293Z,1.4
2022-09-09T09:41:47.540Z,1.4
2022-09-09T09:43:03.773Z,1.3
2022-09-09T09:44:20.014Z,1.4
2022-09-09T09:45:36.259Z,1.3
2022-09-09T09:46:52.497Z,1.2
2022-09-09T09:48:08.732Z,1.2
2022-09-09T09:49:24.971Z,1.4
2022-09-09T09:50:41.211Z,1.5
2022-09-09T09:51:56.463Z,1.4
2022-09-09T09:53:12.712Z,1.5
2022-09-09T09:54:28.936Z,1.4
2022-09-09T09:55:45.189Z,1.5
2022-09-09T09:57:01.428Z,1.4
2022-09-09T09:58:17.661Z,1.3
2022-09-09T09:59:32.938Z,1.4
2022-09-09T10:00:49.159Z,1.5
2022-09-09T10:02:05.418Z,1.6
2022-09-09T10:03:21.646Z,1.5
2022-09-09T10:04:37.892Z,1.5
2022-09-09T10:05:54.138Z,1.5
2022-09-09T10:07:10.372Z,1.9
2022-09-09T10:08:26.614Z,1.7
2022-09-09T10:09:42.842Z,1.7
2022-09-09T10:10:59.094Z,1.7
2022-09-09T10:12:15.328Z,2.1
2022-09-09T10:13:31.559Z,1.6
2022-09-09T10:14:47.799Z,1.7
2022-09-09T10:16:03.066Z,1.4
2022-09-09T10:17:19.305Z,1.4
2022-09-09T10:18:35.541Z,2.2
2022-09-09T10:19:51.788Z,1.5
2022-09-09T10:21:08.026Z,1.7
2022-09-09T10:22:24.255Z,1.5
2022-09-09T10:23:40.495Z,1.6
2022-09-09T10:24:56.741Z,1.5
2022-09-09T10:27:29.221Z,1.4
2022-09-09T10:28:45.468Z,1.4
2022-09-09T10:30:01.710Z,1.6
2022-09-09T10:31:17.936Z,1.7
2022-09-09T10:32:33.196Z,1.7
2022-09-09T10:33:49.436Z,1.3
2022-09-09T10:35:05.684Z,1.5
2022-09-09T10:36:21.924Z,1.3
2022-09-09T10:37:38.167Z,1.3
2022-09-09T10:38:54.408Z,1.3
2022-09-09T10:40:10.641Z,1.4
2022-09-09T10:42:43.113Z,1.6
2022-09-09T10:43:59.359Z,1.7
2022-09-09T10:45:15.595Z,1.5
2022-09-09T10:46:31.846Z,1.4
2022-09-09T10:47:48.080Z,1.7
2022-09-09T10:49:03.339Z,1.5
2022-09-09T10:50:19.569Z,1.4
2022-09-09T10:51:35.821Z,1.3
2022-09-09T10:52:52.053Z,1.3
2022-09-09T10:54:08.302Z,1.5
2022-09-09T10:55:24.534Z,1.4
2022-09-09T10:56:40.770Z,1.7
2022-09-09T10:57:57.023Z,1.3
2022-09-09T10:59:13.260Z,1.4
2022-09-09T11:00:29.503Z,1.4
2022-09-09T11:01:45.730Z,1.4
2022-09-09T11:03:01.970Z,1.4
2022-09-09T11:04:18.219Z,1.7
2022-09-09T11:05:33.468Z,1.4
2022-09-09T11:06:49.715Z,1.5
2022-09-09T11:08:05.962Z,1.5
2022-09-09T11:09:22.200Z,1.4
2022-09-09T11:10:38.436Z,1.5
2022-09-09T11:11:54.674Z,1.4
2022-09-09T11:13:10.918Z,1.5
2022-09-09T11:14:27.161Z,1.4
2022-09-09T11:15:43.390Z,1.5
2022-09-09T11:16:59.635Z,1.5
2022-09-09T11:18:15.865Z,1.6
2022-09-09T11:19:32.122Z,1.6
2022-09-09T11:20:48.361Z,1.6
2022-09-09T11:22:03.601Z,1.5
2022-09-09T11:23:19.860Z,1.3
2022-09-09T11:24:36.100Z,1.4
2022-09-09T11:25:52.339Z,1.3
2022-09-09T11:27:08.569Z,1.5
2022-09-09T11:28:24.811Z,1.4
2022-09-09T11:29:41.053Z,1.4
2022-09-09T11:30:57.292Z,1.4
2022-09-09T11:32:13.537Z,1.5
2022-09-09T11:33:29.766Z,1.5
2022-09-09T11:34:46.015Z,1.4
2022-09-09T11:36:02.251Z,1.4
2022-09-09T11:37:18.489Z,1.4
2022-09-09T11:38:33.755Z,1.4
2022-09-09T11:39:49.986Z,1.5
2022-09-09T11:41:06.232Z,1.4
2022-09-09T11:42:22.474Z,1.4
2022-09-09T11:43:38.709Z,1.7
2022-09-09T11:44:54.941Z,1.5
2022-09-09T11:46:11.187Z,1.4
2022-09-09T11:47:27.434Z,1.4
2022-09-09T11:48:43.670Z,1.4
2022-09-09T11:49:59.911Z,1.4
2022-09-09T11:51:16.151Z,1.4
2022-09-09T11:52:32.375Z,1.5
2022-09-09T11:53:48.620Z,1.5
2022-09-09T11:55:03.876Z,1.4
2022-09-09T11:56:20.132Z,1.4
2022-09-09T11:57:36.359Z,1.5
2022-09-09T11:58:52.608Z,1.5
2022-09-09T12:00:08.847Z,1.3
2022-09-09T12:01:25.088Z,1.4
2022-09-09T12:02:41.324Z,1.5
2022-09-09T12:03:57.555Z,1.3
2022-09-09T12:05:13.798Z,1.4
2022-09-09T12:06:30.045Z,1.3
2022-09-09T12:07:46.282Z,1.2
2022-09-09T12:09:02.523Z,1.4
2022-09-09T12:10:18.769Z,1.5
2022-09-09T12:11:34.013Z,1.4
2022-09-09T12:12:50.248Z,1.3
2022-09-09T12:14:06.506Z,1.3
2022-09-09T12:16:38.967Z,1.3
2022-09-09T12:17:55.220Z,1.3
2022-09-09T12:19:11.460Z,1.3
2022-09-09T12:21:43.944Z,1.3
2022-09-09T12:23:00.178Z,1.3
2022-09-09T12:24:16.422Z,1.3
2022-09-09T12:25:32.659Z,1.3
2022-09-09T12:26:48.888Z,1.5
2022-09-09T12:28:04.161Z,1.3
2022-09-09T12:29:20.395Z,1.3
2022-09-09T12:30:36.631Z,1.3
2022-09-09T12:31:52.872Z,1.5
2022-09-09T12:33:09.126Z,1.3
2022-09-09T12:34:25.360Z,1.6
2022-09-09T12:35:41.603Z,1.2
2022-09-09T12:36:57.822Z,1.5
2022-09-09T12:38:14.062Z,1.3
2022-09-09T12:39:30.303Z,1.4
2022-09-09T12:40:46.547Z,1.4
2022-09-09T12:42:02.792Z,1.3
2022-09-09T12:43:19.023Z,1.4
2022-09-09T12:44:34.295Z,1.4
2022-09-09T12:45:50.540Z,1.5
2022-09-09T12:47:06.766Z,1.5
2022-09-09T12:48:23.017Z,1.3
2022-09-09T12:49:39.258Z,1.3
2022-09-09T12:50:55.481Z,1.5
2022-09-09T12:52:11.734Z,1.4
2022-09-09T12:53:27.975Z,1.4
2022-09-09T12:54:44.204Z,1.4
2022-09-09T12:56:00.455Z,1.3
2022-09-09T12:57:16.695Z,1.4
2022-09-09T12:58:32.934Z,1.5
2022-09-09T12:59:49.170Z,1.5
2022-09-09T13:01:04.426Z,1.4
2022-09-09T13:02:20.674Z,1.5
2022-09-09T13:03:36.896Z,1.3
2022-09-09T13:04:53.141Z,1.4
2022-09-09T13:06:09.385Z,1.4
2022-09-09T13:07:25.627Z,1.3
2022-09-09T13:08:41.860Z,1.3
2022-09-09T13:09:58.103Z,1.4
2022-09-09T13:11:14.336Z,1.3
2022-09-09T13:12:30.574Z,1.2
2022-09-09T13:13:46.816Z,1.2
2022-09-09T13:15:03.070Z,1.3
2022-09-09T13:16:19.308Z,1.3
2022-09-09T13:17:34.558Z,1.3
2022-09-09T13:18:50.793Z,1.2
2022-09-09T13:20:07.034Z,1.3
2022-09-09T13:21:23.275Z,1.1
2022-09-09T13:22:39.508Z,1.4
2022-09-09T13:23:55.752Z,1.4
2022-09-09T13:25:12.006Z,1.1
2022-09-09T13:26:28.245Z,1.2
2022-09-09T13:27:44.479Z,1.3
2022-09-09T13:29:00.722Z,1.1
2022-09-09T13:30:16.955Z,1.2
2022-09-09T13:31:33.205Z,1.3
2022-09-09T13:32:49.441Z,1.2
2022-09-09T13:34:04.690Z,1.2
2022-09-09T13:35:20.944Z,1.3
2022-09-09T13:36:37.174Z,1.5
2022-09-09T13:37:53.416Z,1.3
2022-09-09T13:39:09.655Z,1.3
2022-09-09T13:40:25.897Z,1.2
2022-09-09T13:41:42.126Z,1.1
2022-09-09T13:42:58.367Z,1.2
2022-09-09T13:44:14.606Z,1.1
2022-09-09T13:45:30.866Z,1.1
2022-09-09T13:46:47.087Z,1.3
2022-09-09T13:48:03.328Z,1.1
2022-09-09T13:49:19.565Z,1.3
2022-09-09T13:50:34.821Z,1.3
2022-09-09T13:51:51.000Z,1.2
2022-09-09T13:53:07.319Z,1.2
2022-09-09T13:54:23.553Z,1.3
2022-09-09T13:55:39.798Z,1.3
2022-09-09T13:56:56.034Z,1.3
2022-09-09T13:58:12.262Z,1.3
2022-09-09T13:59:28.512Z,1.3
2022-09-09T14:00:44.762Z,1.3
2022-09-09T14:02:00.989Z,1.3
2022-09-09T14:03:17.230Z,1.3
2022-09-09T14:04:33.480Z,1.3
2022-09-09T14:05:49.705Z,1.3
2022-09-09T14:07:04.976Z,1.2
2022-09-09T14:08:21.202Z,1.2
2022-09-09T14:10:53.691Z,1.3
2022-09-09T14:12:09.929Z,1.1
2022-09-09T14:13:26.173Z,1.4
2022-09-09T14:14:41.440Z,1.1
2022-09-09T14:15:57.665Z,1.1
2022-09-09T14:17:13.916Z,1.1
2022-09-09T14:18:30.150Z,1
2022-09-09T14:19:46.396Z,1.1
2022-09-09T14:21:02.633Z,0.9
2022-09-09T14:22:18.870Z,1
2022-09-09T14:23:35.108Z,1.1
2022-09-09T14:24:51.352Z,1.1
2022-09-09T14:26:07.584Z,1.1
2022-09-09T14:27:23.836Z,1
2022-09-09T14:28:40.059Z,1
2022-09-09T14:29:56.309Z,1
2022-09-09T14:31:11.571Z,1.1
2022-09-09T14:32:27.806Z,0.9
2022-09-09T14:33:44.037Z,0.9
2022-09-09T14:35:00.283Z,1
2022-09-09T14:36:16.529Z,1
2022-09-09T14:37:32.759Z,1
2022-09-09T14:38:48.998Z,1
2022-09-09T14:40:05.247Z,1
2022-09-09T14:41:21.480Z,1.1
2022-09-09T14:42:37.716Z,1
2022-09-09T14:43:53.964Z,0.9
2022-09-09T14:45:10.205Z,1
2022-09-09T14:46:26.452Z,1
2022-09-09T14:47:41.694Z,1
2022-09-09T14:48:57.950Z,0.9
2022-09-09T14:50:14.178Z,1
2022-09-09T14:51:30.425Z,1.1
2022-09-09T14:52:46.654Z,0.9
2022-09-09T14:54:02.893Z,1
2022-09-09T14:55:19.142Z,1
2022-09-09T14:56:35.381Z,1.2
2022-09-09T14:57:51.622Z,1
2022-09-09T14:59:07.856Z,1
2022-09-09T15:00:24.107Z,1.1
2022-09-09T15:01:40.350Z,1
2022-09-09T15:02:56.587Z,1.2
2022-09-09T15:04:11.840Z,1
2022-09-09T15:05:28.085Z,1
2022-09-09T15:06:44.320Z,1.1
2022-09-09T15:08:00.568Z,1
2022-09-09T15:09:16.796Z,1.2
2022-09-09T15:10:33.037Z,1.2
2022-09-09T15:11:49.285Z,1.3
2022-09-09T15:13:05.511Z,1
2022-09-09T15:14:21.765Z,1.1
2022-09-09T15:15:37.995Z,1
2022-09-09T15:16:54.240Z,1.1
2022-09-09T15:18:10.484Z,1.1
2022-09-09T15:19:26.725Z,1.1
2022-09-09T15:20:41.971Z,1.1
2022-09-09T15:21:58.207Z,1.1
2022-09-09T15:23:14.450Z,1
2022-09-09T15:24:30.700Z,1
2022-09-09T15:25:46.935Z,1.1
2022-09-09T15:27:03.184Z,1
2022-09-09T15:28:19.424Z,1
2022-09-09T15:29:35.664Z,1.4
2022-09-09T15:30:51.899Z,1.3
2022-09-09T15:32:08.139Z,1.1
2022-09-09T15:33:24.368Z,1.1
2022-09-09T15:34:40.613Z,1
2022-09-09T15:35:56.856Z,1.1
2022-09-09T15:37:12.120Z,1.1
2022-09-09T15:38:28.357Z,1.1
2022-09-09T15:39:44.594Z,1.2
2022-09-09T15:41:00.832Z,1
2022-09-09T15:42:17.072Z,1.1
2022-09-09T15:43:33.309Z,1
2022-09-09T15:44:49.557Z,1.2
2022-09-09T15:46:05.796Z,1.1
2022-09-09T15:47:22.024Z,1.1
2022-09-09T15:48:38.273Z,1
2022-09-09T15:49:54.515Z,1.1
2022-09-09T15:51:10.741Z,1.1
2022-09-09T15:52:26.991Z,1
2022-09-09T15:53:42.249Z,1
2022-09-09T15:54:58.488Z,1.3
2022-09-09T15:56:14.728Z,1.1
2022-09-09T15:57:30.976Z,1
2022-09-09T15:58:47.208Z,1.1
2022-09-09T16:00:03.458Z,1
2022-09-09T16:01:19.696Z,1
2022-09-09T16:02:35.936Z,1.1
2022-09-09T16:03:52.165Z,1.1
2022-09-09T16:05:08.410Z,1.1
2022-09-09T16:06:24.639Z,1.1
2022-09-09T16:07:40.895Z,1.2
2022-09-09T16:08:57.123Z,1.1
2022-09-09T16:10:12.389Z,1.1
2022-09-09T16:11:28.628Z,1.1
2022-09-09T16:12:44.870Z,1
2022-09-09T16:14:01.110Z,1.1
2022-09-09T16:15:17.342Z,1.1
2022-09-09T16:16:33.596Z,1
2022-09-09T16:17:49.819Z,1
2022-09-09T16:19:06.074Z,1.1
2022-09-09T16:20:22.315Z,1
2022-09-09T16:21:38.554Z,0.9
2022-09-09T16:22:54.782Z,1
2022-09-09T16:24:11.036Z,1
2022-09-09T16:25:27.259Z,1
2022-09-09T16:26:42.522Z,1.2
2022-09-09T16:27:58.759Z,1.1
2022-09-09T16:29:15.008Z,1
2022-09-09T16:30:31.233Z,1.2
2022-09-09T16:31:47.475Z,1.2
2022-09-09T16:33:03.713Z,1.3
2022-09-09T16:34:19.961Z,1.1
2022-09-09T16:35:36.196Z,1.3
2022-09-09T16:36:52.450Z,1.2
2022-09-09T16:38:08.674Z,1.1
2022-09-09T16:39:24.925Z,1.1
2022-09-09T16:40:41.167Z,1
2022-09-09T16:41:57.402Z,1
2022-09-09T16:43:12.654Z,1
2022-09-09T16:44:28.896Z,1.1
2022-09-09T16:45:45.143Z,1
2022-09-09T16:47:01.388Z,1.1
2022-09-09T16:48:17.619Z,1.2
2022-09-09T16:49:33.862Z,1.3
2022-09-09T16:50:50.110Z,1.4
2022-09-09T16:52:06.332Z,1.9
2022-09-09T16:53:22.582Z,2.1
2022-09-09T16:54:38.813Z,2
2022-09-09T16:55:55.060Z,2
2022-09-09T16:57:11.295Z,1.4
2022-09-09T16:58:27.536Z,1.6
2022-09-09T16:59:42.787Z,1.7
2022-09-09T17:00:59.033Z,1.3
2022-09-09T17:02:15.271Z,1.4
2022-09-09T17:03:31.522Z,1.4
2022-09-09T17:04:47.756Z,1.4
2022-09-09T17:06:04.018Z,1.1
2022-09-09T17:07:20.242Z,1
2022-09-09T17:08:36.483Z,1
2022-09-09T17:09:52.722Z,1
2022-09-09T17:11:08.961Z,1
2022-09-09T17:12:25.191Z,0.9
2022-09-09T17:13:41.433Z,0.9
2022-09-09T17:14:57.678Z,1
2022-09-09T17:16:12.939Z,0.9
2022-09-09T17:17:29.172Z,0.9
2022-09-09T17:18:45.413Z,0.9
2022-09-09T17:20:01.647Z,1
2022-09-09T17:21:17.899Z,0.9
2022-09-09T17:22:34.130Z,0.9
2022-09-09T17:23:50.380Z,0.9
2022-09-09T17:25:06.625Z,0.9
2022-09-09T17:26:22.864Z,1
2022-09-09T17:27:39.105Z,0.9
2022-09-09T17:28:55.331Z,0.9
2022-09-09T17:30:11.567Z,0.9
2022-09-09T17:31:27.813Z,0.8
2022-09-09T17:32:43.074Z,1.2
2022-09-09T17:33:59.312Z,1.1
2022-09-09T17:35:15.563Z,1
2022-09-09T17:36:31.787Z,1.1
2022-09-09T17:37:48.039Z,1.1
2022-09-09T17:39:04.278Z,1.4
2022-09-09T17:40:20.509Z,1.2
2022-09-09T17:41:36.764Z,1.3
2022-09-09T17:42:53.002Z,1.1
2022-09-09T17:44:09.230Z,1.1
2022-09-09T17:45:25.470Z,1.1
2022-09-09T17:46:41.716Z,1.1
2022-09-09T17:47:57.950Z,1.1
2022-09-09T17:49:13.219Z,1.2
2022-09-09T17:50:29.445Z,1
2022-09-09T17:51:45.681Z,1.1
2022-09-09T17:53:01.928Z,1.2
2022-09-09T17:54:18.165Z,1.2
2022-09-09T17:55:34.408Z,1.1
2022-09-09T17:56:50.647Z,1.2